Vacarisses (Vallès Occidental)





Hora UTC 19:35
Temperatura 9.9 ºC
Humitat 49.0 %
Pressió 1005.8 hPa
Pluja 0.2 mm
Velocitat vent 0.9 km/h
Direcció vent

Dades diàries 2024-02-23



Hora UTC (hivern +1h; estiu +2h)
Temperatura (ºC) Humitat (%) Pressió (hPa) Velocitat vent (km/h) Precipitació (mm)
Hora UTC Aire Humitat Pressió Vel. Dir. Vel. Max Dir. Intent. màx 5 min.
00:05 13.9 65.0 1002.7 7.0 7.0 0.0
00:15 13.9 65.0 1002.7 7.0 11.9 0.0
00:25 13.8 67.0 1002.8 18.7 23.1 0.0
00:35 13.6 67.0 1003.1 7.2 23.1 0.0
00:45 13.6 67.0 1003.1 7.2 23.1 0.0
00:55 13.3 70.0 1003.3 6.6 23.1 0.0
01:05 12.9 68.0 1003.8 4.6 23.1 0.0
01:15 12.9 68.0 1003.8 4.6 23.1 0.0
01:25 12.1 70.0 1003.7 9.1 23.1 0.2
01:35 11.7 67.0 1003.8 18.1 31.7 0.0
01:45 11.7 67.0 1003.8 18.1 31.7 0.0
01:55 11.5 67.0 1003.9 9.3 31.7 0.0
02:05 11.2 66.0 1003.9 5.6 31.7 0.0
02:15 11.2 66.0 1003.9 5.6 31.7 0.0
02:25 10.4 67.0 1003.9 2.8 31.7 0.0
02:35 9.8 65.0 1003.7 4.6 31.7 0.0
02:45 9.8 65.0 1003.7 4.6 31.7 0.0
02:55 9.4 66.0 1003.4 3.3 31.7 0.0
03:05 9.2 65.0 1003.4 5.8 31.7 0.0
03:15 9.2 65.0 1003.4 5.8 31.7 0.0
03:25 8.9 63.0 1003.1 8.0 31.7 0.0
03:45 8.9 63.0 1003.1 8.0 31.7 0.0
03:55 8.4 63.0 1003.4 2.9 31.7 0.0
04:05 7.9 65.0 1003.2 2.2 31.7 0.0
04:15 7.9 65.0 1003.2 2.2 31.7 0.0
04:25 6.9 69.0 1003.2 7.2 31.7 0.0
04:35 6.9 69.0 1003.4 4.0 31.7 0.0
04:45 6.9 69.0 1003.4 4.0 31.7 0.0
04:55 7.1 67.0 1003.5 5.3 31.7 0.0
05:05 6.9 67.0 1003.6 2.6 31.7 0.0
05:15 6.9 67.0 1003.6 2.6 31.7 0.0
05:25 6.6 69.0 1003.7 4.4 31.7 0.0
05:35 6.3 69.0 1003.7 1.7 31.7 0.0
05:45 6.3 69.0 1003.7 1.7 31.7 0.0
05:55 6.1 70.0 1004.2 3.5 31.7 0.0
06:05 5.9 71.0 1004.3 3.5 31.7 0.0
06:15 5.9 71.0 1004.3 3.5 31.7 0.0
06:25 5.7 72.0 1004.3 5.3 31.7 0.0
06:35 5.4 73.0 1004.3 5.2 31.7 0.0
06:45 5.4 73.0 1004.3 5.2 31.7 0.0
06:55 5.2 74.0 1004.5 4.2 31.7 0.0
07:05 4.9 75.0 1004.8 1.3 31.7 0.0
07:15 4.9 75.0 1004.8 1.3 31.7 0.0
07:25 4.8 76.0 1005.1 1.0 31.7 0.0
07:35 5.4 74.0 1005.3 1.9 31.7 0.0
07:45 5.4 74.0 1005.3 1.9 31.7 0.0
07:55 6.0 72.0 1005.4 1.9 31.7 0.0
08:05 7.1 69.0 1005.7 2.8 31.7 0.0
08:15 7.1 69.0 1005.7 2.8 31.7 0.0
08:25 7.6 66.0 1005.7 2.6 31.7 0.0
08:35 7.8 64.0 1005.8 2.6 31.7 0.0
08:45 7.8 64.0 1005.8 2.6 31.7 0.0
08:55 8.3 60.0 1006.0 4.1 31.7 0.0
09:05 9.0 56.0 1006.0 5.0 31.7 0.0
09:15 9.0 56.0 1006.0 5.0 31.7 0.0
09:25 9.3 55.0 1006.1 9.3 31.7 0.0
09:35 9.4 56.0 1005.9 8.7 34.1 0.0
09:45 9.4 56.0 1005.9 8.7 34.1 0.0
09:55 9.8 55.0 1005.9 10.1 34.1 0.0
10:05 10.2 53.0 1006.0 12.9 34.1 0.0
10:15 10.2 53.0 1006.0 12.9 34.1 0.0
10:25 10.8 52.0 1005.9 9.4 34.1 0.0
10:35 10.8 50.0 1005.8 15.4 34.3 0.0
10:45 10.8 50.0 1005.8 15.4 34.3 0.0
10:55 11.2 48.0 1005.8 14.4 34.3 0.0
11:05 11.5 46.0 1005.7 13.6 34.3 0.0
11:15 11.5 46.0 1005.7 13.6 34.3 0.0
11:25 11.4 46.0 1005.8 16.1 36.8 0.0
11:35 11.4 46.0 1005.6 17.3 36.8 0.0
11:45 11.4 46.0 1005.6 17.3 36.8 0.0
11:55 11.7 47.0 1005.6 13.8 36.8 0.0
12:05 11.4 45.0 1005.4 27.1 38.0 0.0
12:15 11.4 45.0 1005.4 27.1 38.0 0.0
12:25 11.4 46.0 1005.2 18.4 44.1 0.0
12:35 11.9 45.0 1004.9 19.5 44.1 0.0
12:45 11.9 45.0 1004.9 19.5 44.1 0.0
12:55 12.3 44.0 1004.8 22.2 44.1 0.0
13:05 12.3 42.0 1004.6 23.8 44.1 0.0
13:15 12.3 42.0 1004.6 23.8 44.1 0.0
13:25 12.9 42.0 1004.4 13.7 44.1 0.0
13:35 13.2 40.0 1004.5 25.7 44.1 0.0
13:45 13.2 40.0 1004.5 25.7 44.1 0.0
13:55 13.0 40.0 1004.5 18.2 44.1 0.0
14:05 13.1 40.0 1004.3 15.4 44.1 0.0
14:15 13.1 40.0 1004.3 15.4 44.1 0.0
14:25 13.5 40.0 1004.0 14.8 44.1 0.0
14:35 13.3 38.0 1003.9 24.0 44.1 0.0
14:45 13.3 38.0 1003.9 24.0 44.1 0.0
14:55 13.3 39.0 1004.0 19.0 44.1 0.0
15:05 13.2 39.0 1004.1 20.4 48.2 0.0
15:15 13.2 39.0 1004.1 20.4 48.2 0.0
15:25 13.2 39.0 1004.3 31.0 48.2 0.0
15:35 13.2 37.0 1004.3 24.0 48.2 0.0
15:45 13.2 37.0 1004.3 24.0 48.2 0.0
15:55 13.2 38.0 1004.2 16.5 48.2 0.0
16:05 13.1 37.0 1004.1 17.0 48.2 0.0
16:15 13.1 37.0 1004.1 17.0 48.2 0.0
16:25 12.9 38.0 1004.4 17.4 48.2 0.0
16:35 12.9 38.0 1004.5 11.8 48.2 0.0
16:45 12.9 38.0 1004.5 11.8 48.2 0.0
16:55 12.7 38.0 1004.5 14.3 48.2 0.0
17:05 11.9 39.0 1004.6 15.5 48.2 0.0
17:15 11.9 39.0 1004.6 15.5 48.2 0.0
17:25 11.6 40.0 1004.6 6.8 48.2 0.0
17:35 11.6 39.0 1004.8 11.8 48.2 0.0
17:45 11.6 39.0 1004.8 11.8 48.2 0.0
17:55 11.7 39.0 1004.7 19.5 48.2 0.0
18:05 11.5 41.0 1004.7 21.1 48.9 0.0
18:15 11.5 41.0 1004.7 21.1 48.9 0.0
18:25 11.3 43.0 1005.1 18.7 48.9 0.0
18:35 11.1 44.0 1005.2 9.7 48.9 0.0
18:45 11.1 44.0 1005.2 9.7 48.9 0.0
18:55 11.2 44.0 1005.5 10.3 48.9 0.0
19:05 11.1 45.0 1005.8 7.6 48.9 0.0
19:15 11.1 45.0 1005.8 7.6 48.9 0.0
19:25 10.8 46.0 1005.8 6.6 48.9 0.0
19:35 9.9 49.0 1005.8 0.9 48.9 0.0
Màxima 14.1 76.0 1006.1 31.0 48.9 0.2
Mínima 4.8 37.0 1002.7
Total 0.2